Terminal Aerodrome Forecast
Issued by NWS

Home | Current Version | Previous Version | Text Only | Print | Product List | Glossary On
Versions: 1 2 3 4 5 6 7 8 9 10 11 12 13
000
FTUS43 KLSX 241200 AAA
TAFCPS
TAF AMD
KCPS 241257Z 2413/2512 31005KT 6SM -RA OVC035
     FM241400 30008KT 4SM -RASN BR OVC030
     FM241600 30010KT P6SM OVC010
     FM241900 28011G17KT P6SM OVC015
     FM250000 27008KT P6SM OVC015
     FM251000 21006KT P6SM SCT020=

USA.gov is the U.S. government's official web portal to all federal, state and local government web resources and services.